Hatsu Envoy — VSQL9 — position and weather

sailwx.info

Track history (hours):
 
Tides and Currents Weather Stations Pressure Air Temp Water Temp Dewpoint Dewpoint Depression Visibility Wind Speed Wind Dir Waves Ship Positions

Hatsu Envoy

Last reported at 2015-May-24 21:32 UTC. Time now 2015-May-30 10:36 UTC.
Position N 34°34' E 130°15'.

Type: Ship (hazmat cat D). MMSI: 235414000.

Date/timePositionNaut miles runAvg speedWind from/ knotsBaromVisibWave heightAir tempDewpointWater temp
2015-May-24 21:32N 34°34' E 130°15'1818.0
2015-May-24 20:32N 34°22' E 129°60'1818.1
2015-May-24 19:33N 34°09' E 129°44'1818.0
2015-May-24 18:33N 33°58' E 129°28'1817.9
2015-May-24 17:33N 33°47' E 129°11'1717.4
2015-May-24 16:33N 33°37' E 128°53'38117.1
2015-May-23 18:21N 29°53' E 122°51'1417.4
2015-May-23 17:33N 29°45' E 122°38'1514.5
2015-May-23 16:33N 29°43' E 122°22'1010.2
2015-May-23 15:34N 29°50' E 122°13'9 9.0
2015-May-23 14:33N 29°54' E 122°03'1 0.5
2015-May-23 13:33N 29°53' E 122°03'0 0.0
2015-May-23 12:33N 29°53' E 122°03'0 0.0
2015-May-23 11:33N 29°53' E 122°03'0 0.0
2015-May-23 10:21N 29°53' E 122°03'0 0.0
2015-May-23 09:27N 29°53' E 122°03'0 0.0
2015-May-23 08:24N 29°53' E 122°03'0 0.0
2015-May-23 05:33N 29°53' E 122°03'0 0.0
2015-May-23 04:09N 29°53' E 122°03'0 0.0
2015-May-23 03:30N 29°53' E 122°03'0 0.0
2015-May-23 01:24N 29°53' E 122°03'1 1.7
2015-May-23 00:33N 29°54' E 122°04'6 5.7
2015-May-22 23:33N 29°54' E 122°10'1211.6
2015-May-22 22:33N 29°45' E 122°19'9 9.3
2015-May-22 21:33N 29°44' E 122°29'79 9.9
2015-May-22 13:33N 30°56' E 123°08'1211.2
2015-May-22 12:31N 31°01' E 122°56'1111.4
2015-May-22 11:33N 31°04' E 122°43'1310.4
2015-May-22 10:20N 31°06' E 122°29'911.9
2015-May-22 09:34N 31°06' E 122°18'1414.1
2015-May-22 08:33N 31°14' E 122°04'1313.1
2015-May-22 07:33N 31°17' E 121°49'1010.2
2015-May-22 06:33N 31°21' E 121°38'3 3.0
2015-May-22 05:27N 31°23' E 121°35'0 0.0
2015-May-22 04:30N 31°23' E 121°35'0 0.0
2015-May-22 03:33N 31°23' E 121°35'0 0.0
2015-May-22 02:33N 31°23' E 121°35'0 0.0
2015-May-22 01:33N 31°23' E 121°35'0 0.0
2015-May-22 00:30N 31°23' E 121°35'0 0.0
2015-May-21 23:33N 31°23' E 121°35'0 0.0
2015-May-21 22:33N 31°23' E 121°35'0 0.0
2015-May-21 21:33N 31°23' E 121°35'0 0.0
2015-May-21 20:33N 31°23' E 121°35'0 0.0
2015-May-21 19:33N 31°23' E 121°35'0 0.1
2015-May-21 18:33N 31°23' E 121°35'3 3.1
2015-May-21 17:33N 31°22' E 121°38'1010.3
2015-May-21 16:33N 31°17' E 121°49'1010.3
2015-May-21 15:33N 31°15' E 122°01'1010.3
2015-May-21 14:33N 31°10' E 122°12'1111.4
2015-May-21 13:33N 31°06' E 122°24'10 9.0
2015-May-21 12:24N 31°07' E 122°36'7 7.9
2015-May-21 11:28N 31°05' E 122°45'20 9.5
2015-May-21 09:24N 30°58' E 123°06'18 9.4
2015-May-21 07:26N 30°43' E 123°19'1410.8
2015-May-21 06:06N 30°29' E 123°19'48913.2
2015-May-19 17:11N 22°54' E 119°58'813.0
2015-May-19 16:33N 22°48' E 120°03'1313.0
2015-May-19 15:33N 22°37' E 120°11'8 8.4
2015-May-19 14:33N 22°33' E 120°19'0 0.1
2015-May-19 12:23N 22°33' E 120°19'0 0.0
2015-May-19 11:29N 22°33' E 120°19'0 0.0
2015-May-19 10:29N 22°33' E 120°19'0 0.0
2015-May-19 09:29N 22°33' E 120°19'0 0.0
2015-May-19 08:29N 22°33' E 120°19'0 0.0
2015-May-19 07:29N 22°33' E 120°19'0 0.0
2015-May-19 06:29N 22°33' E 120°19'0 0.0
2015-May-19 05:29N 22°33' E 120°19'0 0.0
2015-May-19 04:29N 22°33' E 120°19'0 0.0
2015-May-19 03:29N 22°33' E 120°19'0 0.0
2015-May-19 02:23N 22°33' E 120°19'0 0.0
2015-May-19 01:29N 22°33' E 120°19'0 0.0
2015-May-18 23:26N 22°33' E 120°19'0 0.2
2015-May-18 22:34N 22°33' E 120°19'6 6.4
2015-May-18 21:33N 22°32' E 120°12'1212.4
2015-May-18 20:33N 22°30' E 119°59'1413.6
2015-May-18 19:32N 22°28' E 119°44'1 1.2
2015-May-18 18:32N 22°29' E 119°43'30013.6
2015-May-17 20:28N 22°34' E 114°19'3 2.7
2015-May-17 19:28N 22°34' E 114°16'0 0.0
2015-May-17 18:28N 22°34' E 114°16'0 0.0
2015-May-17 17:22N 22°34' E 114°16'0 0.0
2015-May-17 16:22N 22°34' E 114°16'0 0.0
2015-May-17 15:22N 22°34' E 114°16'0 0.0
2015-May-17 14:04N 22°34' E 114°16'0 0.0
2015-May-17 13:28N 22°34' E 114°16'0 0.0
2015-May-17 12:16N 22°34' E 114°16'0 0.0
2015-May-17 09:22N 22°34' E 114°16'0 0.0
2015-May-17 08:10N 22°34' E 114°16'0 0.0
2015-May-17 06:23N 22°34' E 114°16'14 7.6
2015-May-17 04:31N 22°26' E 114°29'5 5.6
2015-May-17 03:33N 22°23' E 114°33'7 5.7
2015-May-17 02:19N 22°16' E 114°30'911.5
2015-May-17 01:33N 22°10' E 114°24'1311.6
2015-May-17 00:28N 22°12' E 114°10'8 9.0
2015-May-16 23:34N 22°20' E 114°07'0 0.3
2015-May-16 22:31N 22°20' E 114°08'0 0.0
2015-May-16 21:28N 22°20' E 114°08'0 0.0
2015-May-16 20:28N 22°20' E 114°08'0 0.0
2015-May-16 19:31N 22°20' E 114°08'0 0.0
2015-May-16 18:31N 22°20' E 114°08'0 0.0
2015-May-16 17:31N 22°20' E 114°08'0 0.0
2015-May-16 16:22N 22°20' E 114°08'0 0.0
2015-May-16 15:28N 22°20' E 114°08'0 0.0
2015-May-16 14:33N 22°20' E 114°08'0 0.0
2015-May-16 13:31N 22°20' E 114°08'0 0.0
2015-May-16 12:31N 22°20' E 114°08'0 0.0
2015-May-16 11:25N 22°20' E 114°08'2 2.4
2015-May-16 10:33N 22°19' E 114°06'11 9.4
2015-May-16 09:21N 22°10' E 114°13'910.9
2015-May-16 08:33N 22°09' E 114°23'30018.8
2015-May-15 16:32N 24°18' E 119°18'1919.2
2015-May-15 15:33N 24°28' E 119°35'1919.2
2015-May-15 14:33N 24°38' E 119°53'1919.3
2015-May-15 13:33N 24°48' E 120°11'1919.1
2015-May-15 12:33N 24°58' E 120°29'1919.2
2015-May-15 11:33N 25°08' E 120°47'2417.5
2015-May-15 10:11N 25°15' E 121°13'914.4
2015-May-15 09:32N 25°09' E 121°21'  
Track history (hours):
 
Tides and Currents Weather Stations Pressure Air Temp Water Temp Dewpoint Dewpoint Depression Visibility Wind Speed Wind Dir Waves Ship Positions

Hatsu Envoy

Last reported at 2015-May-24 21:32 UTC. Time now 2015-May-30 10:36 UTC.
Position N 34°34' E 130°15'.

Type: Ship (hazmat cat D). MMSI: 235414000.

Date/timePositionNaut miles runAvg speedWind from/ knotsBaromVisibWave heightAir tempDewpointWater temp
2015-May-24 21:32N 34°34' E 130°15'1818.0
2015-May-24 20:32N 34°22' E 129°60'1818.1
2015-May-24 19:33N 34°09' E 129°44'1818.0
2015-May-24 18:33N 33°58' E 129°28'1817.9
2015-May-24 17:33N 33°47' E 129°11'1717.4
2015-May-24 16:33N 33°37' E 128°53'38117.1
2015-May-23 18:21N 29°53' E 122°51'1417.4
2015-May-23 17:33N 29°45' E 122°38'1514.5
2015-May-23 16:33N 29°43' E 122°22'1010.2
2015-May-23 15:34N 29°50' E 122°13'9 9.0
2015-May-23 14:33N 29°54' E 122°03'1 0.5
2015-May-23 13:33N 29°53' E 122°03'0 0.0
2015-May-23 12:33N 29°53' E 122°03'0 0.0
2015-May-23 11:33N 29°53' E 122°03'0 0.0
2015-May-23 10:21N 29°53' E 122°03'0 0.0
2015-May-23 09:27N 29°53' E 122°03'0 0.0
2015-May-23 08:24N 29°53' E 122°03'0 0.0
2015-May-23 05:33N 29°53' E 122°03'0 0.0
2015-May-23 04:09N 29°53' E 122°03'0 0.0
2015-May-23 03:30N 29°53' E 122°03'0 0.0
2015-May-23 01:24N 29°53' E 122°03'1 1.7
2015-May-23 00:33N 29°54' E 122°04'6 5.7
2015-May-22 23:33N 29°54' E 122°10'1211.6
2015-May-22 22:33N 29°45' E 122°19'9 9.3
2015-May-22 21:33N 29°44' E 122°29'79 9.9
2015-May-22 13:33N 30°56' E 123°08'1211.2
2015-May-22 12:31N 31°01' E 122°56'1111.4
2015-May-22 11:33N 31°04' E 122°43'1310.4
2015-May-22 10:20N 31°06' E 122°29'911.9
2015-May-22 09:34N 31°06' E 122°18'1414.1
2015-May-22 08:33N 31°14' E 122°04'1313.1
2015-May-22 07:33N 31°17' E 121°49'1010.2
2015-May-22 06:33N 31°21' E 121°38'3 3.0
2015-May-22 05:27N 31°23' E 121°35'0 0.0
2015-May-22 04:30N 31°23' E 121°35'0 0.0
2015-May-22 03:33N 31°23' E 121°35'0 0.0
2015-May-22 02:33N 31°23' E 121°35'0 0.0
2015-May-22 01:33N 31°23' E 121°35'0 0.0
2015-May-22 00:30N 31°23' E 121°35'0 0.0
2015-May-21 23:33N 31°23' E 121°35'0 0.0
2015-May-21 22:33N 31°23' E 121°35'0 0.0
2015-May-21 21:33N 31°23' E 121°35'0 0.0
2015-May-21 20:33N 31°23' E 121°35'0 0.0
2015-May-21 19:33N 31°23' E 121°35'0 0.1
2015-May-21 18:33N 31°23' E 121°35'3 3.1
2015-May-21 17:33N 31°22' E 121°38'1010.3
2015-May-21 16:33N 31°17' E 121°49'1010.3
2015-May-21 15:33N 31°15' E 122°01'1010.3
2015-May-21 14:33N 31°10' E 122°12'1111.4
2015-May-21 13:33N 31°06' E 122°24'10 9.0
2015-May-21 12:24N 31°07' E 122°36'7 7.9
2015-May-21 11:28N 31°05' E 122°45'20 9.5
2015-May-21 09:24N 30°58' E 123°06'18 9.4
2015-May-21 07:26N 30°43' E 123°19'1410.8
2015-May-21 06:06N 30°29' E 123°19'48913.2
2015-May-19 17:11N 22°54' E 119°58'813.0
2015-May-19 16:33N 22°48' E 120°03'1313.0
2015-May-19 15:33N 22°37' E 120°11'8 8.4
2015-May-19 14:33N 22°33' E 120°19'0 0.1
2015-May-19 12:23N 22°33' E 120°19'0 0.0
2015-May-19 11:29N 22°33' E 120°19'0 0.0
2015-May-19 10:29N 22°33' E 120°19'0 0.0
2015-May-19 09:29N 22°33' E 120°19'0 0.0
2015-May-19 08:29N 22°33' E 120°19'0 0.0
2015-May-19 07:29N 22°33' E 120°19'0 0.0
2015-May-19 06:29N 22°33' E 120°19'0 0.0
2015-May-19 05:29N 22°33' E 120°19'0 0.0
2015-May-19 04:29N 22°33' E 120°19'0 0.0
2015-May-19 03:29N 22°33' E 120°19'0 0.0
2015-May-19 02:23N 22°33' E 120°19'0 0.0
2015-May-19 01:29N 22°33' E 120°19'0 0.0
2015-May-18 23:26N 22°33' E 120°19'0 0.2
2015-May-18 22:34N 22°33' E 120°19'6 6.4
2015-May-18 21:33N 22°32' E 120°12'1212.4
2015-May-18 20:33N 22°30' E 119°59'1413.6
2015-May-18 19:32N 22°28' E 119°44'1 1.2
2015-May-18 18:32N 22°29' E 119°43'30013.6
2015-May-17 20:28N 22°34' E 114°19'3 2.7
2015-May-17 19:28N 22°34' E 114°16'0 0.0
2015-May-17 18:28N 22°34' E 114°16'0 0.0
2015-May-17 17:22N 22°34' E 114°16'0 0.0
2015-May-17 16:22N 22°34' E 114°16'0 0.0
2015-May-17 15:22N 22°34' E 114°16'0 0.0
2015-May-17 14:04N 22°34' E 114°16'0 0.0
2015-May-17 13:28N 22°34' E 114°16'0 0.0
2015-May-17 12:16N 22°34' E 114°16'0 0.0
2015-May-17 09:22N 22°34' E 114°16'0 0.0
2015-May-17 08:10N 22°34' E 114°16'0 0.0
2015-May-17 06:23N 22°34' E 114°16'14 7.6
2015-May-17 04:31N 22°26' E 114°29'5 5.6
2015-May-17 03:33N 22°23' E 114°33'7 5.7
2015-May-17 02:19N 22°16' E 114°30'911.5
2015-May-17 01:33N 22°10' E 114°24'1311.6
2015-May-17 00:28N 22°12' E 114°10'8 9.0
2015-May-16 23:34N 22°20' E 114°07'0 0.3
2015-May-16 22:31N 22°20' E 114°08'0 0.0
2015-May-16 21:28N 22°20' E 114°08'0 0.0
2015-May-16 20:28N 22°20' E 114°08'0 0.0
2015-May-16 19:31N 22°20' E 114°08'0 0.0
2015-May-16 18:31N 22°20' E 114°08'0 0.0
2015-May-16 17:31N 22°20' E 114°08'0 0.0
2015-May-16 16:22N 22°20' E 114°08'0 0.0
2015-May-16 15:28N 22°20' E 114°08'0 0.0
2015-May-16 14:33N 22°20' E 114°08'0 0.0
2015-May-16 13:31N 22°20' E 114°08'0 0.0
2015-May-16 12:31N 22°20' E 114°08'0 0.0
2015-May-16 11:25N 22°20' E 114°08'2 2.4
2015-May-16 10:33N 22°19' E 114°06'11 9.4
2015-May-16 09:21N 22°10' E 114°13'910.9
2015-May-16 08:33N 22°09' E 114°23'30018.8
2015-May-15 16:32N 24°18' E 119°18'1919.2
2015-May-15 15:33N 24°28' E 119°35'1919.2
2015-May-15 14:33N 24°38' E 119°53'1919.3
2015-May-15 13:33N 24°48' E 120°11'1919.1
2015-May-15 12:33N 24°58' E 120°29'1919.2
2015-May-15 11:33N 25°08' E 120°47'2417.5
2015-May-15 10:11N 25°15' E 121°13'914.4
2015-May-15 09:32N 25°09' E 121°21'  

Dump ship's entire track history